Albuquerque, NM (87122)

4:35 PM MDT on July 26, 2016 (GMT -0600)
La Cueva | | Change Station

Elev 5430 ft 35.18 °N, 106.56 °W | Updated 6 seconds ago

Scattered Clouds
Scattered Clouds
95.5 °F
Feels Like 95.5 °F
N
4.7
Wind Variable Wind from West
Gusts 13.6 mph

Today
High -- | Low -- °F
--% Chance of Precip.
Yesterday
High -- | Low -- °F
Precip. -- in
Pressure 29.83 in
Visibility 10.0 miles
Clouds Few 8000 ft
Scattered Clouds 25000 ft
Dew Point 51.9 °F
Humidity 23%
Rainfall 0.00 in
Snow Depth Not available.
6:10 AM 8:13 PM
Waning Gibbous, 50% visible
METAR KABQ 262152Z VRB04KT 10SM FEW080 SCT250 32/11 A3011 RMK AO2 SLP100 CB DSNT N-NE AND S-SW TCU DSNT NE T03170106
Pressure 29.83 in
Visibility 10.0 miles
Clouds Few 8000 ft
Scattered Clouds 25000 ft
Dew Point 51.9 °F
Humidity 23%
Rainfall 0.00 in
Snow Depth Not available.
6:10 AM 8:13 PM
Waning Gibbous, 50% visible
METAR KABQ 262152Z VRB04KT 10SM FEW080 SCT250 32/11 A3011 RMK AO2 SLP100 CB DSNT N-NE AND S-SW TCU DSNT NE T03170106

10-Day Weather Forecast

Almanac

Astronomy

Jul. 26, 2016 Rise Set
Actual Time
Civil Twilight
Nautical Twilight
Astronomical Twilight
Moon
Length of Visible Light
Length of Day
Tomorrow will be .
, % of the Moon is Illuminated

Today's Extremes

State Highs State Lows

Community

WunderPhotos

Upload Photos

1,927,725 photos uploaded!

WunderBlog® & News

Nearby

Air Quality

  Air Quality AQ Index Pollutant
Not available.

Snow Depth

Station Depth Elevation

Earthquake Activity

City Distance Mag. Time & Date
Minimum magnitude displayed is 2.5.

Coastal Water Temperatures

Place Temperature

Stations

Nearby Weather Stations

Station Location Temp. Windchill Dew Point Humidity Wind Precip. Elev Updated Type
                   

Watches & Warnings

There are currently no watches in effect.